Time;durP1;ratioP1;P1;durP2;ratioP2;P2;SDS_P1;SDS_P2;PMS_P1;PMS_P2;Temp;Humidity;BMP_temperature;BMP_pressure;BME280_temperature;BME280_humidity;BME280_pressure;Samples;Min_cycle;Max_cycle;Signal;HPM_P1;HPM_P2
2021/05/03 00:01:46;;;;;;;9.20;7.00;;;;;;;12.83;61.24;93707.73;1799877;79;21061;-51
2021/05/03 00:04:14;;;;;;;8.10;4.60;;;;;;;12.76;61.68;93701.88;1799873;78;21144;-51
2021/05/03 00:06:43;;;;;;;2.40;2.20;;;;;;;12.67;62.07;93707.53;1799897;79;21180;-51
2021/05/03 00:09:12;;;;;;;2.60;2.40;;;;;;;12.62;62.29;93713.15;1799996;78;21513;-52
2021/05/03 00:11:41;;;;;;;4.90;2.50;;;;;;;12.55;62.47;93707.29;1799990;78;21140;-52
2021/05/03 00:14:11;;;;;;;3.27;2.80;;;;;;;12.51;62.60;93720.55;1800003;79;21182;-51
2021/05/03 00:16:39;;;;;;;6.12;3.00;;;;;;;12.47;63.01;93733.77;1800015;78;21084;-54
2021/05/03 00:19:07;;;;;;;6.00;2.92;;;;;;;12.39;63.45;93732.67;1799944;79;21184;-50
2021/05/03 00:21:36;;;;;;;3.50;3.20;;;;;;;12.32;64.67;93737.23;1799987;79;21235;-50
2021/05/03 00:24:06;;;;;;;4.37;3.30;;;;;;;12.20;65.36;93742.45;1799884;79;21061;-51
2021/05/03 00:26:36;;;;;;;4.97;3.90;;;;;;;12.12;66.06;93751.61;1799931;78;21073;-52
2021/05/03 00:29:04;;;;;;;5.17;4.37;;;;;;;12.05;66.96;93754.14;1799947;79;21100;-51
2021/05/03 00:31:32;;;;;;;4.10;3.42;;;;;;;11.96;67.70;93766.69;1799905;79;21192;-52
2021/05/03 00:33:59;;;;;;;4.30;3.77;;;;;;;11.91;68.05;93785.89;1799843;79;21081;-51
2021/05/03 00:36:27;;;;;;;5.35;3.95;;;;;;;11.84;68.52;93772.48;1799877;79;21073;-50
2021/05/03 00:38:55;;;;;;;6.58;4.55;;;;;;;11.80;69.09;93790.62;1799926;78;21061;-50
2021/05/03 00:41:23;;;;;;;4.22;3.87;;;;;;;11.82;69.49;93803.30;1799963;79;21124;-51
2021/05/03 00:43:51;;;;;;;9.30;4.50;;;;;;;11.79;69.74;93782.21;1799930;79;21343;-51
2021/05/03 00:46:20;;;;;;;5.22;4.20;;;;;;;11.70;69.95;93785.06;1799795;78;21085;-51
2021/05/03 00:48:48;;;;;;;4.97;3.90;;;;;;;11.65;70.11;93795.98;1800002;79;21143;-50
2021/05/03 00:51:16;;;;;;;4.08;3.60;;;;;;;11.59;70.21;93790.41;1799899;78;21093;-51
2021/05/03 00:53:44;;;;;;;4.80;3.60;;;;;;;11.54;69.66;93786.89;1799934;79;21112;-51
2021/05/03 00:56:12;;;;;;;4.03;3.70;;;;;;;11.54;69.44;93802.05;1799880;79;21187;-51
2021/05/03 00:58:41;;;;;;;4.17;3.67;;;;;;;11.57;68.39;93801.12;1799706;79;21139;-51
2021/05/03 01:01:09;;;;;;;4.15;3.75;;;;;;;11.63;68.33;93793.73;1799843;78;21156;-52
2021/05/03 01:03:39;;;;;;;4.87;3.95;;;;;;;11.66;68.56;93807.14;1799850;78;21056;-52
2021/05/03 01:06:07;;;;;;;3.95;3.58;;;;;;;11.61;69.00;93818.23;1799889;79;21064;-51
2021/05/03 01:08:35;;;;;;;4.90;3.20;;;;;;;11.55;67.73;93799.43;1799917;78;21132;-51
2021/05/03 01:11:03;;;;;;;6.75;2.30;;;;;;;11.64;65.38;93795.84;1799815;79;21127;-51
2021/05/03 01:13:31;;;;;;;5.72;2.55;;;;;;;11.80;64.88;93803.02;1799938;79;21536;-52
2021/05/03 01:15:59;;;;;;;5.37;3.60;;;;;;;11.94;63.26;93794.58;1799882;79;21068;-52
2021/05/03 01:18:29;;;;;;;4.10;2.98;;;;;;;12.06;62.96;93801.15;1799922;79;21068;-51
2021/05/03 01:20:57;;;;;;;2.95;2.47;;;;;;;12.14;62.81;93810.56;1799928;79;21140;-52
2021/05/03 01:23:25;;;;;;;2.85;2.55;;;;;;;12.16;62.86;93824.63;1799847;78;21121;-51
2021/05/03 01:25:53;;;;;;;3.60;3.30;;;;;;;12.19;61.71;93825.64;1799849;79;21159;-52
2021/05/03 01:28:20;;;;;;;6.03;4.90;;;;;;;12.19;63.99;93816.77;1799870;78;21140;-53
2021/05/03 01:30:49;;;;;;;4.85;3.50;;;;;;;12.06;64.77;93831.47;1799914;78;21065;-51
2021/05/03 01:33:18;;;;;;;4.58;4.17;;;;;;;11.87;65.66;93817.77;1799962;79;22077;-51
2021/05/03 01:35:47;;;;;;;4.22;3.85;;;;;;;11.74;66.58;93826.95;1799942;79;21469;-51
2021/05/03 01:38:16;;;;;;;4.83;4.00;;;;;;;11.62;66.98;93825.27;1799978;79;21465;-51
2021/05/03 01:40:45;;;;;;;6.60;4.15;;;;;;;11.48;67.88;93828.74;1799862;79;21220;-50
2021/05/03 01:43:21;;;;;;;4.85;4.28;;;;;;;11.37;68.44;93822.28;1799891;79;21111;-51
2021/05/03 01:45:51;;;;;;;5.53;5.03;;;;;;;11.24;68.86;93829.45;1799908;79;21180;-51
2021/05/03 01:48:24;;;;;;;4.83;4.30;;;;;;;11.11;69.53;93831.70;1799836;79;21076;-51
2021/05/03 01:50:53;;;;;;;5.85;4.78;;;;;;;10.97;69.96;93832.42;1799961;78;21160;-52
2021/05/03 01:53:21;;;;;;;4.33;3.98;;;;;;;10.84;70.83;93829.16;1799945;79;21172;-50
2021/05/03 01:55:54;;;;;;;4.85;4.12;;;;;;;10.71;71.12;93827.89;1799882;79;21034;-51
2021/05/03 01:58:23;;;;;;;6.47;4.67;;;;;;;10.61;71.60;93839.44;1801386;79;21181;-51
2021/05/03 02:00:51;;;;;;;6.40;4.30;;;;;;;10.47;71.85;93844.25;1807739;79;21188;-49
2021/05/03 02:03:24;;;;;;;6.28;5.12;;;;;;;10.36;72.18;93843.41;1807697;78;21049;-50
2021/05/03 02:05:54;;;;;;;5.30;4.80;;;;;;;10.27;72.46;93846.22;1807719;79;21506;-50
2021/05/03 02:08:22;;;;;;;6.92;4.58;;;;;;;10.27;72.84;93852.31;1807811;79;21148;-52
2021/05/03 02:10:53;;;;;;;5.40;4.87;;;;;;;10.25;72.99;93854.17;1807789;79;21337;-51
2021/05/03 02:13:22;;;;;;;5.25;4.75;;;;;;;10.22;73.21;93858.45;1807745;78;21144;-52
2021/05/03 02:15:51;;;;;;;5.20;4.30;;;;;;;10.13;73.48;93858.52;1807753;79;21057;-50
2021/05/03 02:18:18;;;;;;;5.40;4.87;;;;;;;10.06;73.42;93849.99;1807739;79;21193;-51
2021/05/03 02:20:46;;;;;;;6.20;5.03;;;;;;;10.00;73.56;93851.80;1807793;79;21045;-51
2021/05/03 02:23:14;;;;;;;6.53;4.83;;;;;;;9.97;73.58;93863.72;1807773;79;21374;-50
2021/05/03 02:25:42;;;;;;;5.70;5.15;;;;;;;9.95;73.68;93859.94;1807691;79;21112;-50
2021/05/03 02:28:11;;;;;;;6.12;5.50;;;;;;;9.91;73.84;93867.56;1807756;79;21041;-50
2021/05/03 02:30:40;;;;;;;5.65;5.15;;;;;;;9.89;73.82;93876.88;1807732;78;21045;-51
2021/05/03 02:33:08;;;;;;;5.78;5.20;;;;;;;9.86;73.80;93867.60;1807799;78;21069;-50
2021/05/03 02:35:36;;;;;;;7.45;5.65;;;;;;;9.82;73.80;93866.98;1807745;79;21190;-50
2021/05/03 02:38:08;;;;;;;8.03;5.80;;;;;;;9.80;73.90;93868.69;1807713;79;21125;-51
2021/05/03 02:40:36;;;;;;;6.15;5.12;;;;;;;9.79;73.94;93869.91;1807789;79;21471;-51
2021/05/03 02:43:04;;;;;;;5.60;5.10;;;;;;;9.78;74.10;93875.26;1807706;79;21553;-51
2021/05/03 02:45:32;;;;;;;5.47;5.05;;;;;;;9.71;74.20;93872.22;1807786;79;21053;-52
2021/05/03 02:48:02;;;;;;;11.10;5.70;;;;;;;9.66;74.43;93874.83;1807733;79;21251;-51
2021/05/03 02:50:30;;;;;;;8.83;5.35;;;;;;;9.62;74.59;93878.35;1807703;79;21517;-51
2021/05/03 02:52:58;;;;;;;5.87;4.92;;;;;;;9.62;74.65;93879.09;1807749;79;21049;-51
2021/05/03 02:55:26;;;;;;;5.75;5.17;;;;;;;9.60;74.55;93883.55;1807727;79;21478;-50
2021/05/03 02:57:55;;;;;;;8.63;5.22;;;;;;;9.54;74.58;93894.38;1807768;78;21108;-51
2021/05/03 03:00:28;;;;;;;5.60;5.10;;;;;;;9.49;74.72;93892.27;1800493;77;21253;-51
2021/05/03 03:02:56;;;;;;;15.85;13.98;;;;;;;9.49;74.91;93896.98;1799703;78;21096;-51
2021/05/03 03:05:24;;;;;;;7.78;5.22;;;;;;;9.49;75.06;93918.34;1799814;79;21112;-51
2021/05/03 03:07:52;;;;;;;5.35;4.40;;;;;;;9.54;74.51;93905.97;1799830;78;21119;-51
2021/05/03 03:10:23;;;;;;;6.15;4.85;;;;;;;9.61;74.20;93919.39;1799830;78;21128;-51
2021/05/03 03:12:51;;;;;;;6.10;4.83;;;;;;;9.68;73.89;93918.47;1784355;79;21421;-52
2021/05/03 03:15:19;;;;;;;5.03;4.45;;;;;;;9.73;73.81;93917.06;1799745;79;21084;-51
2021/05/03 03:17:51;;;;;;;7.03;5.20;;;;;;;9.77;73.64;93927.30;1799872;78;21060;-51
2021/05/03 03:20:19;;;;;;;5.58;5.03;;;;;;;9.81;73.35;93938.88;1799837;79;21069;-51
2021/05/03 03:22:47;;;;;;;6.20;4.67;;;;;;;9.89;72.57;93944.96;1799799;78;21179;-50
2021/05/03 03:25:18;;;;;;;6.15;5.37;;;;;;;9.94;72.38;93953.17;1799833;79;21124;-51
2021/05/03 03:27:46;;;;;;;5.75;5.25;;;;;;;9.96;72.34;93951.50;1799797;79;21104;-50
2021/05/03 03:30:16;;;;;;;6.35;5.75;;;;;;;10.01;72.27;93946.00;1799819;79;21136;-50
2021/05/03 03:32:44;;;;;;;5.10;4.70;;;;;;;10.08;72.04;93956.68;1799800;79;21127;-50
2021/05/03 03:35:15;;;;;;;4.85;4.45;;;;;;;10.11;71.79;93954.38;1799793;79;21564;-50
2021/05/03 03:37:44;;;;;;;5.12;4.08;;;;;;;10.13;70.63;93953.33;1799928;79;21260;-52
2021/05/03 03:40:13;;;;;;;6.53;4.50;;;;;;;10.24;67.75;93955.73;1799920;79;21591;-52
2021/05/03 03:42:42;;;;;;;3.85;3.10;;;;;;;10.41;67.91;93957.48;1799964;79;21136;-51
2021/05/03 03:45:10;;;;;;;3.35;3.15;;;;;;;10.56;65.67;93964.58;1799960;79;21096;-50
2021/05/03 03:47:39;;;;;;;6.28;2.90;;;;;;;10.77;63.54;93973.96;1799936;78;21057;-50
2021/05/03 03:50:09;;;;;;;3.55;3.25;;;;;;;10.98;61.22;93964.66;1799947;79;21184;-51
2021/05/03 03:52:37;;;;;;;4.58;4.17;;;;;;;11.18;60.97;93970.34;1800000;79;21088;-51
2021/05/03 03:55:08;;;;;;;3.00;2.80;;;;;;;11.32;60.79;93978.53;1800021;79;21084;-52
2021/05/03 03:57:35;;;;;;;3.12;2.70;;;;;;;11.44;60.51;93978.88;1799942;78;21496;-51
2021/05/03 04:00:06;;;;;;;3.60;3.00;;;;;;;11.53;60.17;93976.81;1804750;79;21584;-52
2021/05/03 04:02:35;;;;;;;3.67;2.90;;;;;;;11.62;60.02;93988.41;1779113;79;21500;-52
2021/05/03 04:05:24;;;;;;;3.90;3.60;;;;;;;11.69;59.70;93991.55;1807816;79;21164;-53
2021/05/03 04:07:48;;;;;;;2.80;2.60;;;;;;;11.76;59.24;93996.72;1803203;78;21553;-50
2021/05/03 04:13:12;;;;;;;2.77;2.52;;;;;;;11.88;58.58;94012.84;1807886;79;21132;-52
2021/05/03 04:21:19;;;;;;;12.33;9.68;;;;;;;11.95;58.06;94024.87;1807848;79;21141;-51
2021/05/03 04:23:49;;;;;;;26.90;24.05;;;;;;;11.95;57.65;94027.02;1807808;79;21132;-52
2021/05/03 04:26:15;;;;;;;9.03;8.18;;;;;;;11.98;57.42;94029.43;1807545;78;21109;-51
2021/05/03 04:28:46;;;;;;;4.17;3.62;;;;;;;11.97;57.60;94024.55;1807915;78;22047;-53
2021/05/03 04:31:14;;;;;;;3.87;3.22;;;;;;;11.98;57.33;94032.96;1807794;79;21125;-52
2021/05/03 04:33:42;;;;;;;5.30;3.90;;;;;;;12.02;57.51;94035.52;1807862;79;21133;-51
2021/05/03 04:36:11;;;;;;;6.37;4.72;;;;;;;12.04;57.62;94032.44;1807889;79;21073;-54
2021/05/03 04:38:40;;;;;;;6.83;6.22;;;;;;;12.03;57.58;94034.28;1807859;79;21067;-51
2021/05/03 04:41:08;;;;;;;7.70;6.35;;;;;;;12.05;57.72;94043.61;1807868;79;21184;-51
2021/05/03 04:43:36;;;;;;;3.95;3.05;;;;;;;12.07;57.60;94039.75;1807791;79;21097;-51
2021/05/03 04:46:04;;;;;;;24.55;22.40;;;;;;;12.10;57.46;94034.67;1807824;79;21117;-50
2021/05/03 04:48:32;;;;;;;4.53;4.22;;;;;;;12.14;57.50;94039.41;1807815;79;21133;-52
2021/05/03 04:51:01;;;;;;;5.42;2.98;;;;;;;12.18;57.35;94040.58;1807863;79;21070;-53
2021/05/03 04:53:30;;;;;;;2.83;2.62;;;;;;;12.23;57.05;94044.81;1807856;78;21231;-51
2021/05/03 04:56:01;;;;;;;2.98;2.47;;;;;;;12.27;56.74;94045.39;1807813;79;21093;-50
2021/05/03 04:58:29;;;;;;;4.78;4.37;;;;;;;12.32;56.88;94050.27;1807742;79;21101;-51
2021/05/03 05:00:57;;;;;;;5.60;4.58;;;;;;;12.36;56.81;94053.58;1812633;79;21062;-53
2021/05/03 05:03:25;;;;;;;8.25;6.65;;;;;;;12.40;56.59;94047.25;1813507;77;21108;-51
2021/05/03 05:05:53;;;;;;;4.50;4.10;;;;;;;12.43;56.31;94047.67;1813553;79;21135;-53
2021/05/03 05:08:22;;;;;;;3.62;3.33;;;;;;;12.49;56.56;94047.14;1813478;79;21192;-52
2021/05/03 05:10:50;;;;;;;3.80;3.42;;;;;;;12.55;56.28;94056.30;1813524;79;21069;-52
2021/05/03 05:13:18;;;;;;;3.05;2.83;;;;;;;12.63;56.12;94053.28;1813525;78;21073;-52
2021/05/03 05:15:46;;;;;;;3.60;3.30;;;;;;;12.70;55.76;94056.42;1813536;79;21053;-52
2021/05/03 05:18:14;;;;;;;4.08;3.40;;;;;;;12.77;56.12;94058.81;1813515;79;21198;-53
2021/05/03 05:20:42;;;;;;;3.85;3.05;;;;;;;12.90;55.71;94064.03;1813478;78;21149;-52
2021/05/03 05:23:11;;;;;;;5.15;3.47;;;;;;;13.04;55.37;94069.55;1813550;78;21097;-54
2021/05/03 05:25:39;;;;;;;4.72;3.55;;;;;;;13.15;54.36;94066.20;1813472;78;21065;-50
2021/05/03 05:28:07;;;;;;;10.72;4.10;;;;;;;13.26;54.53;94069.88;1813485;78;21085;-55
2021/05/03 05:30:36;;;;;;;5.30;3.70;;;;;;;13.35;54.35;94078.67;1813469;78;22433;-55
2021/05/03 05:33:04;;;;;;;6.08;5.47;;;;;;;13.33;55.11;94083.92;1813427;79;21171;-52
2021/05/03 05:35:32;;;;;;;16.02;13.08;;;;;;;13.25;55.43;94081.42;1813591;79;21585;-52
2021/05/03 05:38:00;;;;;;;4.65;4.03;;;;;;;13.09;56.06;94076.41;1813431;79;21073;-52
2021/05/03 05:40:28;;;;;;;4.37;3.70;;;;;;;13.03;56.79;94072.17;1813494;79;21128;-52
2021/05/03 05:42:56;;;;;;;3.85;3.42;;;;;;;12.97;57.36;94077.46;1813530;78;21202;-51
2021/05/03 05:45:26;;;;;;;3.67;3.37;;;;;;;12.91;57.29;94076.59;1813501;79;21144;-52
2021/05/03 05:47:54;;;;;;;5.53;4.62;;;;;;;12.84;57.34;94076.97;1813506;79;21144;-52
2021/05/03 05:50:22;;;;;;;6.15;3.77;;;;;;;12.78;57.91;94078.88;1813458;79;21144;-52
2021/05/03 05:52:50;;;;;;;6.92;4.08;;;;;;;12.75;58.66;94077.08;1813498;78;21156;-53
2021/05/03 05:55:18;;;;;;;3.92;3.45;;;;;;;12.74;58.67;94076.94;1813483;79;21192;-50
2021/05/03 05:57:47;;;;;;;5.00;3.60;;;;;;;12.79;58.39;94074.88;1813384;79;21096;-51
2021/05/03 06:00:16;;;;;;;8.03;3.75;;;;;;;12.82;58.20;94084.97;1813310;79;21133;-54
2021/05/03 06:02:45;;;;;;;4.60;4.03;;;;;;;12.81;58.61;94088.36;1813395;77;21139;-53
2021/05/03 06:05:14;;;;;;;5.95;5.15;;;;;;;12.77;58.18;94093.32;1813369;78;21132;-52
2021/05/03 06:07:43;;;;;;;4.08;3.70;;;;;;;12.72;58.08;94087.70;1813435;79;21182;-50
2021/05/03 06:10:12;;;;;;;4.75;4.00;;;;;;;12.78;58.16;94089.32;1813379;79;21112;-52
2021/05/03 06:12:40;;;;;;;5.30;3.80;;;;;;;12.77;57.79;94093.92;1813541;78;21088;-52
2021/05/03 06:15:09;;;;;;;6.62;4.30;;;;;;;12.73;57.58;94090.59;1813438;78;21065;-51
2021/05/03 06:17:37;;;;;;;5.00;4.03;;;;;;;12.62;58.27;94104.97;1813407;78;21048;-52
2021/05/03 06:20:07;;;;;;;7.15;4.30;;;;;;;12.51;58.72;94102.64;1813461;79;21237;-56
2021/05/03 06:22:36;;;;;;;6.03;4.60;;;;;;;12.40;59.16;94103.80;1813426;78;21141;-52
2021/05/03 06:25:08;;;;;;;5.80;4.37;;;;;;;12.25;59.83;94107.16;1813448;79;21161;-52
2021/05/03 06:27:35;;;;;;;6.90;3.85;;;;;;;12.16;60.22;94104.48;1813456;78;21136;-53
2021/05/03 06:30:06;;;;;;;7.20;4.20;;;;;;;12.07;59.84;94112.81;1813509;78;21624;-52
2021/05/03 06:32:33;;;;;;;5.47;4.28;;;;;;;11.95;60.29;94111.69;1813429;78;21184;-54
2021/05/03 06:35:02;;;;;;;6.12;4.45;;;;;;;11.81;60.17;94120.06;1813423;78;21160;-53
2021/05/03 06:37:30;;;;;;;4.80;4.37;;;;;;;11.64;61.07;94114.81;1813503;79;21510;-54
2021/05/03 06:39:58;;;;;;;7.05;4.50;;;;;;;11.62;61.35;94113.16;1813416;79;21059;-51
2021/05/03 06:42:26;;;;;;;13.65;5.70;;;;;;;11.73;61.93;94116.13;1813428;78;21435;-53
2021/05/03 06:44:54;;;;;;;13.90;5.53;;;;;;;11.90;61.50;94124.13;1813384;78;21665;-55
2021/05/03 06:47:23;;;;;;;5.90;4.40;;;;;;;12.12;61.11;94121.80;1813348;78;21203;-54
2021/05/03 06:49:51;;;;;;;4.30;3.90;;;;;;;12.31;59.79;94119.67;1813437;78;21160;-52
2021/05/03 06:52:19;;;;;;;8.38;4.30;;;;;;;12.40;59.47;94127.25;1813517;79;21101;-53
2021/05/03 06:54:48;;;;;;;5.95;4.37;;;;;;;12.49;59.38;94129.91;1813546;79;21473;-52
2021/05/03 06:57:16;;;;;;;5.05;4.40;;;;;;;12.58;59.08;94129.84;1813366;78;21399;-53
2021/05/03 06:59:45;;;;;;;5.53;4.78;;;;;;;12.65;59.45;94128.85;1812865;78;21581;-54
2021/05/03 07:02:13;;;;;;;5.00;4.50;;;;;;;12.73;59.07;94127.86;1807764;78;21537;-53
2021/05/03 07:04:42;;;;;;;4.33;3.92;;;;;;;12.79;58.65;94132.84;1807693;79;21199;-53
2021/05/03 07:07:10;;;;;;;6.30;5.30;;;;;;;12.82;58.32;94127.75;1807756;78;21571;-53
2021/05/03 07:09:38;;;;;;;6.92;4.12;;;;;;;12.84;57.99;94132.17;1807674;78;21347;-53
2021/05/03 07:12:09;;;;;;;6.28;4.60;;;;;;;12.92;58.03;94129.19;1807848;79;21577;-51
2021/05/03 07:14:37;;;;;;;4.62;4.22;;;;;;;12.97;57.92;94134.06;1807945;78;21089;-53
2021/05/03 07:17:05;;;;;;;4.72;4.22;;;;;;;13.06;58.41;94134.72;1807854;79;21149;-54
2021/05/03 07:19:35;;;;;;;4.75;4.22;;;;;;;13.10;57.45;94137.30;1807899;79;21149;-51
2021/05/03 07:22:06;;;;;;;4.47;4.08;;;;;;;13.04;57.21;94142.73;1807874;79;21237;-51
2021/05/03 07:24:36;;;;;;;6.78;4.25;;;;;;;12.96;56.77;94149.11;1807985;78;21517;-53
2021/05/03 07:27:06;;;;;;;5.75;3.98;;;;;;;12.71;57.71;94145.52;1807981;78;21165;-52
2021/05/03 07:29:34;;;;;;;8.20;5.03;;;;;;;12.47;57.83;94150.32;1807927;78;21183;-51
2021/05/03 07:32:05;;;;;;;4.90;4.40;;;;;;;12.25;58.31;94152.66;1807880;79;21116;-52
2021/05/03 07:34:33;;;;;;;5.35;4.30;;;;;;;12.02;58.64;94160.94;1807805;78;21150;-53
2021/05/03 07:37:03;;;;;;;5.97;5.47;;;;;;;11.80;59.50;94158.50;1807734;78;21184;-52
2021/05/03 07:39:34;;;;;;;7.75;4.83;;;;;;;11.67;60.16;94161.31;1807814;78;21169;-51
2021/05/03 07:42:02;;;;;;;11.18;4.87;;;;;;;11.63;60.37;94171.16;1807853;78;21596;-54
2021/05/03 07:44:31;;;;;;;4.80;4.30;;;;;;;11.57;60.75;94177.13;1803613;78;21180;-54
2021/05/03 07:46:59;;;;;;;7.67;5.30;;;;;;;11.52;61.09;94170.11;1807957;78;21371;-53
2021/05/03 07:49:28;;;;;;;5.00;4.50;;;;;;;11.55;61.37;94177.44;1807777;78;21581;-53
2021/05/03 07:51:57;;;;;;;5.25;4.75;;;;;;;11.64;61.45;94181.54;1807869;79;21046;-52
2021/05/03 07:54:25;;;;;;;5.83;5.12;;;;;;;11.74;61.42;94180.28;1807942;79;21187;-53
2021/05/03 07:56:53;;;;;;;5.35;4.40;;;;;;;11.86;61.25;94182.80;1807950;78;21128;-52
2021/05/03 07:59:21;;;;;;;5.17;4.67;;;;;;;11.97;60.99;94177.53;1807801;79;21196;-52
2021/05/03 08:01:50;;;;;;;5.22;4.72;;;;;;;12.10;60.43;94179.42;1812061;78;21089;-51
2021/05/03 08:04:20;;;;;;;8.05;5.12;;;;;;;12.16;60.09;94176.78;1813504;77;21100;-53
2021/05/03 08:06:52;;;;;;;6.50;4.80;;;;;;;12.21;59.84;94178.28;1813617;78;21061;-54
2021/05/03 08:09:19;;;;;;;5.17;4.60;;;;;;;12.31;60.67;94182.51;1813630;78;21088;-52
2021/05/03 08:11:48;;;;;;;4.83;4.33;;;;;;;12.46;60.17;94172.25;1813607;79;22157;-52
2021/05/03 08:14:18;;;;;;;4.50;4.10;;;;;;;12.59;58.65;94169.99;1813483;78;21152;-52
2021/05/03 08:16:49;;;;;;;5.12;4.62;;;;;;;12.67;59.08;94167.77;1813652;79;21089;-53
2021/05/03 08:19:16;;;;;;;4.67;4.08;;;;;;;12.75;58.75;94170.29;1813538;79;21073;-54
2021/05/03 08:21:46;;;;;;;7.80;4.85;;;;;;;12.87;58.38;94169.27;1811778;79;21073;-53
2021/05/03 08:24:14;;;;;;;5.53;4.05;;;;;;;12.98;58.90;94178.38;1813571;78;21990;-54
2021/05/03 08:26:42;;;;;;;6.08;4.78;;;;;;;13.08;58.77;94182.59;1813449;78;21130;-53
2021/05/03 08:29:11;;;;;;;4.42;4.03;;;;;;;13.12;58.37;94187.30;1813644;78;21100;-54
2021/05/03 08:31:39;;;;;;;5.12;4.17;;;;;;;13.09;57.37;94189.63;1813505;79;21525;-54
2021/05/03 08:34:09;;;;;;;5.47;4.20;;;;;;;12.99;56.90;94190.95;1813588;79;21061;-53
2021/05/03 08:36:36;;;;;;;5.60;3.92;;;;;;;12.88;56.96;94192.87;1813564;79;21428;-53
2021/05/03 08:39:05;;;;;;;8.45;5.70;;;;;;;12.72;56.77;94189.19;1813439;78;21136;-52
2021/05/03 08:41:34;;;;;;;6.50;5.03;;;;;;;12.54;57.80;94199.63;1813464;79;21583;-51
2021/05/03 08:44:03;;;;;;;5.42;4.70;;;;;;;12.41;58.04;94198.37;1813516;79;21184;-53
2021/05/03 08:46:32;;;;;;;5.28;4.62;;;;;;;12.26;58.46;94206.58;1813567;79;21057;-51
2021/05/03 08:49:18;;;;;;;6.15;4.53;;;;;;;12.08;59.13;94210.84;1813534;79;21190;-52
2021/05/03 08:56:43;;;;;;;5.53;4.20;;;;;;;11.77;60.27;94213.78;1813572;78;21117;-53
2021/05/03 08:59:13;;;;;;;5.78;5.25;;;;;;;11.64;60.34;94220.89;1813504;78;21061;-51
2021/05/03 09:01:47;;;;;;;7.20;5.53;;;;;;;11.60;60.76;94222.28;1810086;79;21193;-53
2021/05/03 09:04:16;;;;;;;5.65;5.10;;;;;;;11.58;60.78;94228.27;1807680;78;21141;-53
2021/05/03 09:07:10;;;;;;;5.30;4.80;;;;;;;11.56;61.17;94222.44;1807779;78;21129;-53
2021/05/03 09:09:42;;;;;;;9.08;5.53;;;;;;;11.55;61.11;94224.27;1807828;78;20998;-51
2021/05/03 09:12:15;;;;;;;9.33;5.70;;;;;;;11.50;61.04;94232.55;1807883;78;21123;-52
2021/05/03 09:14:54;;;;;;;6.37;5.78;;;;;;;11.45;61.17;94229.05;1807818;79;21580;-51
2021/05/03 09:17:29;;;;;;;9.90;7.15;;;;;;;11.44;61.25;94235.02;1805647;79;21144;-52
2021/05/03 09:20:04;;;;;;;8.70;6.33;;;;;;;11.43;61.28;94237.02;1807909;78;21085;-54
2021/05/03 09:22:42;;;;;;;12.00;8.28;;;;;;;11.45;59.38;94237.31;1807364;79;21187;-51
2021/05/03 09:25:29;;;;;;;11.12;5.53;;;;;;;11.50;58.34;94239.43;1807763;79;21061;-53
2021/05/03 09:28:09;;;;;;;3.95;3.33;;;;;;;11.65;55.57;94242.30;1807816;78;21299;-52
2021/05/03 09:30:49;;;;;;;8.03;5.60;;;;;;;11.77;53.60;94244.88;1808052;79;21077;-52
2021/05/03 09:33:22;;;;;;;5.55;4.22;;;;;;;11.93;52.87;94249.23;1807645;79;21089;-52
2021/05/03 09:36:02;;;;;;;7.33;4.62;;;;;;;12.05;52.38;94246.24;1807891;78;21414;-51
2021/05/03 09:38:41;;;;;;;8.73;4.15;;;;;;;12.18;52.68;94252.91;1807805;79;21490;-53
2021/05/03 09:41:26;;;;;;;7.35;5.17;;;;;;;12.31;52.03;94254.22;1807825;79;21298;-54
2021/05/03 09:44:05;;;;;;;7.97;3.62;;;;;;;12.43;51.95;94262.86;1807695;78;21128;-51
2021/05/03 09:46:47;;;;;;;14.73;3.80;;;;;;;12.52;51.06;94266.94;1807785;78;21081;-53
2021/05/03 09:49:18;;;;;;;6.45;3.52;;;;;;;12.53;51.17;94263.70;1807877;78;21145;-52
2021/05/03 09:51:54;;;;;;;5.95;4.83;;;;;;;12.53;50.79;94267.09;1807884;79;21544;-53
2021/05/03 09:57:10;;;;;;;14.07;4.80;;;;;;;12.52;49.98;94271.69;1873619;75;22678;-55
2021/05/03 09:59:47;;;;;;;11.97;5.15;;;;;;;12.34;50.25;94283.62;1841703;77;21568;-54
2021/05/03 10:02:33;;;;;;;10.93;7.70;;;;;;;12.19;50.96;94282.78;1839276;78;21224;-52
2021/05/03 10:05:19;;;;;;;11.83;8.70;;;;;;;12.08;51.42;94272.88;1808162;79;21224;-52
2021/05/03 10:07:53;;;;;;;7.47;5.45;;;;;;;12.05;51.70;94300.64;1808467;78;21069;-52
2021/05/03 10:10:23;;;;;;;7.20;4.70;;;;;;;11.97;51.78;94297.45;1808493;78;21148;-53
2021/05/03 10:12:52;;;;;;;12.33;5.55;;;;;;;11.92;52.10;94302.20;1808508;78;21065;-55
2021/05/03 10:15:20;;;;;;;9.45;7.62;;;;;;;11.87;52.95;94306.23;1808470;78;21184;-53
2021/05/03 10:17:48;;;;;;;11.43;9.68;;;;;;;11.82;53.36;94304.86;1808446;79;21121;-52
2021/05/03 10:20:19;;;;;;;8.30;6.97;;;;;;;11.83;53.24;94306.39;1808520;78;21180;-52
2021/05/03 10:22:56;;;;;;;12.50;11.33;;;;;;;11.83;52.90;94311.90;1808474;79;21140;-52
2021/05/03 10:25:24;;;;;;;14.53;6.37;;;;;;;11.83;53.12;94313.88;1808463;78;21097;-53
2021/05/03 10:27:53;;;;;;;4.33;3.92;;;;;;;11.84;53.52;94314.80;1808512;78;21185;-53
2021/05/03 10:30:25;;;;;;;7.65;5.45;;;;;;;11.84;53.58;94324.45;1808394;78;21102;-53
2021/05/03 10:33:06;;;;;;;4.83;4.17;;;;;;;11.81;53.65;94321.25;1808544;78;21496;-56
2021/05/03 10:35:47;;;;;;;5.30;4.20;;;;;;;11.81;53.95;94317.12;1808423;78;21060;-51
2021/05/03 10:38:39;;;;;;;6.15;4.83;;;;;;;11.85;54.11;94328.73;1808413;79;21137;-53
2021/05/03 10:41:31;;;;;;;3.30;3.00;;;;;;;11.91;54.21;94324.11;1808654;78;21775;-54
2021/05/03 10:44:19;;;;;;;10.93;3.72;;;;;;;12.14;53.63;94333.67;1808446;78;21117;-54
2021/05/03 10:49:23;;;;;;;3.45;3.15;;;;;;;12.62;52.65;94336.00;1779679;79;21069;-52
2021/05/03 10:54:34;;;;;;;7.53;3.10;;;;;;;12.54;51.68;94338.34;1808567;78;21565;-53
2021/05/03 10:57:10;;;;;;;7.72;3.27;;;;;;;12.41;51.77;94357.73;1808216;77;21185;-53
2021/05/03 10:59:51;;;;;;;4.37;3.47;;;;;;;12.23;51.50;94359.20;1797920;79;21529;-53
2021/05/03 11:02:22;;;;;;;4.87;3.33;;;;;;;12.08;52.56;94345.19;1808345;78;21112;-54
2021/05/03 11:05:28;;;;;;;18.77;5.60;;;;;;;12.02;52.95;94348.41;1808441;79;21121;-52
2021/05/03 11:08:11;;;;;;;21.42;6.47;;;;;;;11.98;53.30;94360.23;1808028;78;21354;-52
2021/05/03 11:10:58;;;;;;;;;;;;;;;12.01;53.39;94365.59;1810509;78;21105;-53
2021/05/03 11:13:53;;;;;;;8.53;5.42;;;;;;;12.00;53.70;94359.92;1807828;78;20245;-54
2021/05/03 11:16:32;;;;;;;7.80;4.67;;;;;;;11.98;53.15;94354.11;1807822;78;21553;-53
2021/05/03 11:19:23;;;;;;;8.20;5.05;;;;;;;11.92;53.11;94358.70;1807866;79;21065;-53
2021/05/03 11:21:51;;;;;;;7.50;4.10;;;;;;;11.88;52.70;94363.63;1807752;78;21180;-55
2021/05/03 11:24:35;;;;;;;4.72;4.33;;;;;;;11.86;52.63;94348.17;1807793;78;21168;-52
2021/05/03 11:27:01;;;;;;;8.03;4.20;;;;;;;11.89;52.41;94352.00;1805143;78;21082;-50
2021/05/03 11:29:32;;;;;;;5.92;4.65;;;;;;;11.94;52.08;94345.22;1806821;78;21486;-53
2021/05/03 11:31:55;;;;;;;5.42;4.92;;;;;;;12.03;51.60;94336.94;1807159;78;21069;-53
2021/05/03 11:34:30;;;;;;;4.60;3.58;;;;;;;12.22;51.26;94341.73;1807830;78;22304;-55
2021/05/03 11:37:04;;;;;;;3.92;3.52;;;;;;;12.32;49.59;94336.34;1807445;79;21077;-54
2021/05/03 11:45:01;;;;;;;4.53;4.12;;;;;;;12.61;48.65;94330.33;1807895;79;21070;-53
2021/05/03 11:47:31;;;;;;;6.95;6.25;;;;;;;12.72;48.60;94331.95;1807795;78;21373;-53
2021/05/03 11:49:59;;;;;;;7.95;4.65;;;;;;;12.81;47.56;94325.76;1807743;78;21592;-52
2021/05/03 11:52:32;;;;;;;9.18;5.37;;;;;;;12.82;47.39;94322.36;1807804;79;21165;-53
2021/05/03 11:55:10;;;;;;;;;;;;;;;12.84;47.48;94319.89;1810444;78;21128;-53
2021/05/03 11:57:42;;;;;;;9.73;7.15;;;;;;;12.90;47.64;94315.27;1807991;79;20221;-53
2021/05/03 12:00:10;;;;;;;16.10;14.10;;;;;;;12.98;46.75;94319.98;1807869;79;21230;-53
2021/05/03 12:02:38;;;;;;;12.10;11.00;;;;;;;13.10;46.33;94319.58;1807805;78;21509;-54
2021/05/03 12:05:17;;;;;;;6.83;5.78;;;;;;;13.25;46.18;94320.37;1807820;78;21073;-52
2021/05/03 12:07:47;;;;;;;4.92;4.00;;;;;;;13.38;46.20;94316.70;1807778;78;21066;-52
2021/05/03 12:10:22;;;;;;;5.65;4.33;;;;;;;13.52;45.39;94318.11;1807823;79;21053;-52
2021/05/03 12:12:53;;;;;;;4.17;3.40;;;;;;;13.56;44.70;94312.38;1807827;78;21194;-52
2021/05/03 12:15:28;;;;;;;6.55;2.98;;;;;;;13.62;44.17;94313.25;1807841;78;21140;-52
2021/05/03 12:18:01;;;;;;;5.08;2.80;;;;;;;13.56;43.29;94319.28;1807781;79;21073;-51